sensor_id;sensor_type;location;lat;lon;timestamp;pressure;altitude;pressure_sealevel;temperature;humidity
59274;BME280;45044;41.572;24.730;2023-01-28T00:00:51;90317.09;;;0.28;100.00
59274;BME280;45044;41.572;24.730;2023-01-28T00:03:18;90316.00;;;0.29;100.00
59274;BME280;45044;41.572;24.730;2023-01-28T00:05:44;90325.78;;;0.36;100.00
59274;BME280;45044;41.572;24.730;2023-01-28T00:08:11;90326.41;;;0.33;100.00
59274;BME280;45044;41.572;24.730;2023-01-28T00:10:40;90319.16;;;0.39;100.00
59274;BME280;45044;41.572;24.730;2023-01-28T00:13:11;90326.84;;;0.51;100.00
59274;BME280;45044;41.572;24.730;2023-01-28T00:15:39;90333.94;;;0.54;100.00
59274;BME280;45044;41.572;24.730;2023-01-28T00:18:05;90321.09;;;0.42;100.00
59274;BME280;45044;41.572;24.730;2023-01-28T00:20:32;90320.53;;;0.32;100.00
59274;BME280;45044;41.572;24.730;2023-01-28T00:23:01;90332.59;;;0.28;100.00
59274;BME280;45044;41.572;24.730;2023-01-28T00:25:27;90332.94;;;0.27;100.00
59274;BME280;45044;41.572;24.730;2023-01-28T00:27:54;90330.19;;;0.35;100.00
59274;BME280;45044;41.572;24.730;2023-01-28T00:30:21;90335.78;;;0.38;100.00
59274;BME280;45044;41.572;24.730;2023-01-28T00:32:48;90345.34;;;0.21;100.00
59274;BME280;45044;41.572;24.730;2023-01-28T00:35:15;90334.75;;;0.26;100.00
59274;BME280;45044;41.572;24.730;2023-01-28T00:37:44;90351.97;;;0.34;100.00
59274;BME280;45044;41.572;24.730;2023-01-28T00:40:12;90353.22;;;0.41;100.00
59274;BME280;45044;41.572;24.730;2023-01-28T00:42:38;90347.22;;;0.53;100.00
59274;BME280;45044;41.572;24.730;2023-01-28T00:45:05;90355.88;;;0.61;100.00
59274;BME280;45044;41.572;24.730;2023-01-28T00:47:32;90358.22;;;0.66;100.00
59274;BME280;45044;41.572;24.730;2023-01-28T00:49:59;90357.31;;;0.58;100.00
59274;BME280;45044;41.572;24.730;2023-01-28T00:52:26;90360.22;;;0.56;100.00
59274;BME280;45044;41.572;24.730;2023-01-28T00:54:53;90357.78;;;0.64;100.00
59274;BME280;45044;41.572;24.730;2023-01-28T00:57:19;90355.63;;;0.66;100.00
59274;BME280;45044;41.572;24.730;2023-01-28T00:59:46;90355.13;;;0.60;100.00
59274;BME280;45044;41.572;24.730;2023-01-28T01:02:13;90366.13;;;0.25;100.00
59274;BME280;45044;41.572;24.730;2023-01-28T01:04:41;90363.63;;;0.28;100.00
59274;BME280;45044;41.572;24.730;2023-01-28T01:07:25;90358.22;;;0.33;100.00
59274;BME280;45044;41.572;24.730;2023-01-28T01:10:01;90365.47;;;0.44;100.00
59274;BME280;45044;41.572;24.730;2023-01-28T01:12:28;90360.81;;;0.50;100.00
59274;BME280;45044;41.572;24.730;2023-01-28T01:14:56;90369.75;;;0.52;100.00
59274;BME280;45044;41.572;24.730;2023-01-28T01:17:22;90363.97;;;0.59;100.00
59274;BME280;45044;41.572;24.730;2023-01-28T01:19:49;90354.81;;;0.62;100.00
59274;BME280;45044;41.572;24.730;2023-01-28T01:22:16;90368.47;;;0.62;100.00
59274;BME280;45044;41.572;24.730;2023-01-28T01:24:43;90370.63;;;0.60;100.00
59274;BME280;45044;41.572;24.730;2023-01-28T01:27:09;90367.75;;;0.62;100.00
59274;BME280;45044;41.572;24.730;2023-01-28T01:29:36;90367.84;;;0.65;100.00
59274;BME280;45044;41.572;24.730;2023-01-28T01:32:03;90363.38;;;0.66;100.00
59274;BME280;45044;41.572;24.730;2023-01-28T01:34:30;90360.56;;;0.55;100.00
59274;BME280;45044;41.572;24.730;2023-01-28T01:36:58;90367.56;;;0.54;100.00
59274;BME280;45044;41.572;24.730;2023-01-28T01:39:24;90365.06;;;0.42;100.00
59274;BME280;45044;41.572;24.730;2023-01-28T01:41:51;90367.31;;;0.27;100.00
59274;BME280;45044;41.572;24.730;2023-01-28T01:47:26;90370.59;;;0.11;100.00
59274;BME280;45044;41.572;24.730;2023-01-28T01:49:57;90370.59;;;0.11;100.00
59274;BME280;45044;41.572;24.730;2023-01-28T01:52:28;90379.97;;;0.16;100.00
59274;BME280;45044;41.572;24.730;2023-01-28T01:54:59;90374.97;;;0.23;100.00
59274;BME280;45044;41.572;24.730;2023-01-28T01:57:30;90384.97;;;0.25;100.00
59274;BME280;45044;41.572;24.730;2023-01-28T01:59:58;90381.72;;;0.28;100.00
59274;BME280;45044;41.572;24.730;2023-01-28T02:02:38;90385.66;;;0.38;100.00
59274;BME280;45044;41.572;24.730;2023-01-28T02:05:07;90383.00;;;0.51;100.00
59274;BME280;45044;41.572;24.730;2023-01-28T02:07:35;90388.09;;;0.47;100.00
59274;BME280;45044;41.572;24.730;2023-01-28T02:10:02;90383.00;;;0.51;100.00
59274;BME280;45044;41.572;24.730;2023-01-28T02:12:35;90383.34;;;0.49;100.00
59274;BME280;45044;41.572;24.730;2023-01-28T02:15:08;90382.16;;;0.46;100.00
59274;BME280;45044;41.572;24.730;2023-01-28T02:17:36;90382.94;;;0.47;100.00
59274;BME280;45044;41.572;24.730;2023-01-28T02:20:06;90377.00;;;0.46;100.00
59274;BME280;45044;41.572;24.730;2023-01-28T02:23:02;90384.25;;;0.41;100.00
59274;BME280;45044;41.572;24.730;2023-01-28T02:37:03;90384.25;;;0.41;100.00
59274;BME280;45044;41.572;24.730;2023-01-28T02:39:38;90385.69;;;0.54;100.00
59274;BME280;45044;41.572;24.730;2023-01-28T02:42:22;90385.44;;;0.59;100.00
59274;BME280;45044;41.572;24.730;2023-01-28T02:44:50;90387.25;;;0.59;100.00
59274;BME280;45044;41.572;24.730;2023-01-28T02:47:17;90380.91;;;0.56;100.00
59274;BME280;45044;41.572;24.730;2023-01-28T02:50:08;90393.28;;;0.47;100.00
59274;BME280;45044;41.572;24.730;2023-01-28T02:53:16;90386.91;;;0.44;100.00
59274;BME280;45044;41.572;24.730;2023-01-28T02:56:41;90385.25;;;0.52;100.00
59274;BME280;45044;41.572;24.730;2023-01-28T03:02:29;90383.88;;;0.26;100.00
59274;BME280;45044;41.572;24.730;2023-01-28T03:07:51;90394.53;;;0.08;100.00
59274;BME280;45044;41.572;24.730;2023-01-28T03:10:22;90392.75;;;0.25;100.00
59274;BME280;45044;41.572;24.730;2023-01-28T03:12:55;90395.25;;;0.38;100.00
59274;BME280;45044;41.572;24.730;2023-01-28T03:15:46;90395.50;;;0.32;100.00
59274;BME280;45044;41.572;24.730;2023-01-28T03:18:44;90403.19;;;0.45;100.00
59274;BME280;45044;41.572;24.730;2023-01-28T03:21:34;90394.59;;;0.57;100.00
59274;BME280;45044;41.572;24.730;2023-01-28T03:24:27;90402.88;;;0.63;100.00
59274;BME280;45044;41.572;24.730;2023-01-28T03:27:18;90402.78;;;0.59;100.00
59274;BME280;45044;41.572;24.730;2023-01-28T03:30:19;90401.59;;;0.56;100.00
59274;BME280;45044;41.572;24.730;2023-01-28T03:33:06;90400.78;;;0.52;100.00
59274;BME280;45044;41.572;24.730;2023-01-28T03:35:51;90401.91;;;0.39;100.00
59274;BME280;45044;41.572;24.730;2023-01-28T03:38:38;90395.31;;;0.25;100.00
59274;BME280;45044;41.572;24.730;2023-01-28T03:41:10;90397.75;;;0.34;100.00
59274;BME280;45044;41.572;24.730;2023-01-28T03:43:38;90403.25;;;0.32;100.00
59274;BME280;45044;41.572;24.730;2023-01-28T03:46:04;90402.06;;;0.30;100.00
59274;BME280;45044;41.572;24.730;2023-01-28T03:48:32;90406.28;;;0.34;100.00
59274;BME280;45044;41.572;24.730;2023-01-28T03:50:58;90416.63;;;0.34;100.00
59274;BME280;45044;41.572;24.730;2023-01-28T03:53:28;90411.66;;;0.29;100.00
59274;BME280;45044;41.572;24.730;2023-01-28T03:55:55;90400.56;;;0.13;100.00
59274;BME280;45044;41.572;24.730;2023-01-28T03:58:25;90408.59;;;0.23;100.00
59274;BME280;45044;41.572;24.730;2023-01-28T04:01:12;90409.59;;;0.35;100.00
59274;BME280;45044;41.572;24.730;2023-01-28T04:03:39;90408.38;;;0.45;100.00
59274;BME280;45044;41.572;24.730;2023-01-28T04:06:07;90414.38;;;0.49;100.00
59274;BME280;45044;41.572;24.730;2023-01-28T04:08:35;90413.78;;;0.40;100.00
59274;BME280;45044;41.572;24.730;2023-01-28T04:11:01;90420.25;;;0.33;100.00
59274;BME280;45044;41.572;24.730;2023-01-28T04:13:46;90421.00;;;0.18;100.00
59274;BME280;45044;41.572;24.730;2023-01-28T04:16:15;90425.50;;;0.21;100.00
59274;BME280;45044;41.572;24.730;2023-01-28T04:18:43;90424.59;;;0.29;100.00
59274;BME280;45044;41.572;24.730;2023-01-28T04:21:10;90424.47;;;0.09;100.00
59274;BME280;45044;41.572;24.730;2023-01-28T04:23:37;90431.75;;;0.20;100.00
59274;BME280;45044;41.572;24.730;2023-01-28T04:26:04;90429.13;;;0.32;100.00
59274;BME280;45044;41.572;24.730;2023-01-28T04:28:31;90435.13;;;0.08;100.00
59274;BME280;45044;41.572;24.730;2023-01-28T04:30:58;90434.56;;;0.15;100.00
59274;BME280;45044;41.572;24.730;2023-01-28T04:33:24;90438.84;;;0.23;100.00
59274;BME280;45044;41.572;24.730;2023-01-28T04:35:52;90434.38;;;0.07;100.00
59274;BME280;45044;41.572;24.730;2023-01-28T04:38:19;90444.16;;;0.14;100.00
59274;BME280;45044;41.572;24.730;2023-01-28T04:40:49;90440.78;;;0.26;100.00
59274;BME280;45044;41.572;24.730;2023-01-28T04:43:16;90455.22;;;0.27;100.00
59274;BME280;45044;41.572;24.730;2023-01-28T04:45:43;90448.63;;;0.30;100.00
59274;BME280;45044;41.572;24.730;2023-01-28T04:48:10;90457.81;;;0.27;100.00
59274;BME280;45044;41.572;24.730;2023-01-28T04:50:36;90453.84;;;0.17;100.00
59274;BME280;45044;41.572;24.730;2023-01-28T04:53:03;90462.72;;;0.32;100.00
59274;BME280;45044;41.572;24.730;2023-01-28T04:55:30;90459.97;;;0.25;100.00
59274;BME280;45044;41.572;24.730;2023-01-28T04:57:57;90459.09;;;0.21;100.00
59274;BME280;45044;41.572;24.730;2023-01-28T05:00:25;90456.56;;;0.08;100.00
59274;BME280;45044;41.572;24.730;2023-01-28T05:02:52;90464.28;;;0.21;100.00
59274;BME280;45044;41.572;24.730;2023-01-28T05:05:19;90459.16;;;0.08;100.00
59274;BME280;45044;41.572;24.730;2023-01-28T05:07:53;90471.91;;;-0.11;100.00
59274;BME280;45044;41.572;24.730;2023-01-28T05:10:20;90472.75;;;0.05;100.00
59274;BME280;45044;41.572;24.730;2023-01-28T05:12:47;90473.22;;;0.23;100.00
59274;BME280;45044;41.572;24.730;2023-01-28T05:15:16;90450.31;;;0.09;100.00
59274;BME280;45044;41.572;24.730;2023-01-28T05:17:43;90485.38;;;0.23;100.00
59274;BME280;45044;41.572;24.730;2023-01-28T05:20:12;90473.31;;;0.27;100.00
59274;BME280;45044;41.572;24.730;2023-01-28T05:22:39;90474.56;;;0.33;100.00
59274;BME280;45044;41.572;24.730;2023-01-28T05:25:07;90480.66;;;0.25;100.00
59274;BME280;45044;41.572;24.730;2023-01-28T05:27:34;90481.38;;;0.26;100.00
59274;BME280;45044;41.572;24.730;2023-01-28T05:30:01;90479.78;;;0.21;100.00
59274;BME280;45044;41.572;24.730;2023-01-28T05:32:28;90486.16;;;0.11;100.00
59274;BME280;45044;41.572;24.730;2023-01-28T05:34:55;90491.22;;;0.20;100.00
59274;BME280;45044;41.572;24.730;2023-01-28T05:37:23;90489.47;;;0.24;100.00
59274;BME280;45044;41.572;24.730;2023-01-28T05:39:51;90492.53;;;0.14;100.00
59274;BME280;45044;41.572;24.730;2023-01-28T05:42:18;90493.84;;;-0.05;100.00
59274;BME280;45044;41.572;24.730;2023-01-28T05:44:46;90505.91;;;0.03;100.00
59274;BME280;45044;41.572;24.730;2023-01-28T05:47:13;90506.16;;;-0.15;100.00
59274;BME280;45044;41.572;24.730;2023-01-28T05:49:39;90498.72;;;-0.16;100.00
59274;BME280;45044;41.572;24.730;2023-01-28T05:52:06;90509.34;;;-0.05;100.00
59274;BME280;45044;41.572;24.730;2023-01-28T05:54:33;90507.97;;;-0.03;100.00
59274;BME280;45044;41.572;24.730;2023-01-28T05:56:59;90516.38;;;-0.06;100.00
59274;BME280;45044;41.572;24.730;2023-01-28T05:59:26;90502.09;;;-0.28;100.00
59274;BME280;45044;41.572;24.730;2023-01-28T06:01:53;90521.75;;;-0.23;100.00
59274;BME280;45044;41.572;24.730;2023-01-28T06:04:19;90489.41;;;-0.46;100.00
59274;BME280;45044;41.572;24.730;2023-01-28T06:06:46;90522.41;;;-0.14;100.00
59274;BME280;45044;41.572;24.730;2023-01-28T06:09:13;90527.34;;;-0.21;100.00
59274;BME280;45044;41.572;24.730;2023-01-28T06:11:39;90528.13;;;-0.21;100.00
59274;BME280;45044;41.572;24.730;2023-01-28T06:14:06;90535.44;;;-0.23;100.00
59274;BME280;45044;41.572;24.730;2023-01-28T06:16:33;90541.22;;;-0.01;100.00
59274;BME280;45044;41.572;24.730;2023-01-28T06:19:00;90546.81;;;0.14;100.00
59274;BME280;45044;41.572;24.730;2023-01-28T06:21:27;90548.06;;;0.32;100.00
59274;BME280;45044;41.572;24.730;2023-01-28T06:23:55;90548.41;;;0.18;100.00
59274;BME280;45044;41.572;24.730;2023-01-28T06:26:22;90539.50;;;0.03;100.00
59274;BME280;45044;41.572;24.730;2023-01-28T06:28:49;90548.72;;;0.17;100.00
59274;BME280;45044;41.572;24.730;2023-01-28T06:31:16;90548.53;;;0.09;100.00
59274;BME280;45044;41.572;24.730;2023-01-28T06:33:43;90555.31;;;0.14;100.00
59274;BME280;45044;41.572;24.730;2023-01-28T06:36:10;90560.78;;;0.25;100.00
59274;BME280;45044;41.572;24.730;2023-01-28T06:38:36;90560.38;;;0.23;100.00
59274;BME280;45044;41.572;24.730;2023-01-28T06:41:03;90563.41;;;0.13;100.00
59274;BME280;45044;41.572;24.730;2023-01-28T06:43:30;90559.69;;;0.26;100.00
59274;BME280;45044;41.572;24.730;2023-01-28T06:45:57;90561.81;;;0.49;100.00
59274;BME280;45044;41.572;24.730;2023-01-28T06:48:24;90568.28;;;0.43;100.00
59274;BME280;45044;41.572;24.730;2023-01-28T06:50:52;90570.91;;;0.30;100.00
59274;BME280;45044;41.572;24.730;2023-01-28T06:53:19;90573.25;;;0.35;100.00
59274;BME280;45044;41.572;24.730;2023-01-28T06:55:46;90551.13;;;-0.03;100.00
59274;BME280;45044;41.572;24.730;2023-01-28T06:58:12;90576.63;;;0.23;100.00
59274;BME280;45044;41.572;24.730;2023-01-28T07:00:39;90587.19;;;0.31;100.00
59274;BME280;45044;41.572;24.730;2023-01-28T07:03:06;90585.97;;;0.41;100.00
59274;BME280;45044;41.572;24.730;2023-01-28T07:05:33;90591.09;;;0.53;100.00
59274;BME280;45044;41.572;24.730;2023-01-28T07:08:00;90593.41;;;0.71;100.00
59274;BME280;45044;41.572;24.730;2023-01-28T07:10:28;90595.94;;;0.55;100.00
59274;BME280;45044;41.572;24.730;2023-01-28T07:12:55;90591.91;;;0.29;100.00
59274;BME280;45044;41.572;24.730;2023-01-28T07:15:22;90588.78;;;0.35;100.00
59274;BME280;45044;41.572;24.730;2023-01-28T07:17:49;90600.72;;;0.40;100.00
59274;BME280;45044;41.572;24.730;2023-01-28T07:20:16;90599.94;;;0.52;100.00
59274;BME280;45044;41.572;24.730;2023-01-28T07:22:44;90608.47;;;0.53;100.00
59274;BME280;45044;41.572;24.730;2023-01-28T07:25:11;90604.03;;;0.53;100.00
59274;BME280;45044;41.572;24.730;2023-01-28T07:27:39;90608.78;;;0.51;100.00
59274;BME280;45044;41.572;24.730;2023-01-28T07:30:11;90615.50;;;0.40;100.00
59274;BME280;45044;41.572;24.730;2023-01-28T07:32:38;90608.69;;;0.35;100.00
59274;BME280;45044;41.572;24.730;2023-01-28T07:35:05;90614.84;;;0.43;100.00
59274;BME280;45044;41.572;24.730;2023-01-28T07:37:33;90611.16;;;0.44;100.00
59274;BME280;45044;41.572;24.730;2023-01-28T07:39:59;90610.66;;;0.26;100.00
59274;BME280;45044;41.572;24.730;2023-01-28T07:42:26;90613.53;;;0.49;100.00
59274;BME280;45044;41.572;24.730;2023-01-28T07:44:53;90620.66;;;0.40;100.00
59274;BME280;45044;41.572;24.730;2023-01-28T07:47:19;90617.56;;;0.34;100.00
59274;BME280;45044;41.572;24.730;2023-01-28T07:49:46;90627.19;;;0.62;100.00
59274;BME280;45044;41.572;24.730;2023-01-28T07:52:14;90631.75;;;0.40;100.00
59274;BME280;45044;41.572;24.730;2023-01-28T07:54:41;90625.19;;;0.43;100.00
59274;BME280;45044;41.572;24.730;2023-01-28T07:57:08;90632.72;;;0.48;100.00
59274;BME280;45044;41.572;24.730;2023-01-28T07:59:37;90638.78;;;0.27;100.00
59274;BME280;45044;41.572;24.730;2023-01-28T08:02:05;90644.47;;;0.45;100.00
59274;BME280;45044;41.572;24.730;2023-01-28T08:04:31;90644.34;;;0.54;100.00
59274;BME280;45044;41.572;24.730;2023-01-28T08:06:58;90650.78;;;0.61;100.00
59274;BME280;45044;41.572;24.730;2023-01-28T08:09:25;90645.44;;;0.82;100.00
59274;BME280;45044;41.572;24.730;2023-01-28T08:11:52;90650.09;;;0.89;100.00
59274;BME280;45044;41.572;24.730;2023-01-28T08:14:19;90657.41;;;0.87;100.00
59274;BME280;45044;41.572;24.730;2023-01-28T08:16:45;90654.56;;;0.63;100.00
59274;BME280;45044;41.572;24.730;2023-01-28T08:19:13;90657.47;;;0.74;100.00
59274;BME280;45044;41.572;24.730;2023-01-28T08:21:40;90654.41;;;0.85;100.00
59274;BME280;45044;41.572;24.730;2023-01-28T08:24:07;90656.56;;;0.82;100.00
59274;BME280;45044;41.572;24.730;2023-01-28T08:26:34;90623.84;;;0.62;100.00
59274;BME280;45044;41.572;24.730;2023-01-28T08:29:01;90651.66;;;0.65;100.00
59274;BME280;45044;41.572;24.730;2023-01-28T08:31:27;90655.59;;;0.75;100.00
59274;BME280;45044;41.572;24.730;2023-01-28T08:33:55;90659.84;;;0.67;100.00
59274;BME280;45044;41.572;24.730;2023-01-28T08:36:22;90660.25;;;0.81;100.00
59274;BME280;45044;41.572;24.730;2023-01-28T08:38:52;90665.84;;;0.71;100.00
59274;BME280;45044;41.572;24.730;2023-01-28T08:41:23;90664.66;;;0.81;100.00
59274;BME280;45044;41.572;24.730;2023-01-28T08:43:49;90668.78;;;0.69;100.00
59274;BME280;45044;41.572;24.730;2023-01-28T08:46:16;90673.94;;;0.69;100.00
59274;BME280;45044;41.572;24.730;2023-01-28T08:48:43;90674.63;;;0.95;100.00
59274;BME280;45044;41.572;24.730;2023-01-28T08:51:10;90673.56;;;0.96;100.00
59274;BME280;45044;41.572;24.730;2023-01-28T08:53:36;90674.97;;;0.93;100.00
59274;BME280;45044;41.572;24.730;2023-01-28T08:56:03;90671.81;;;1.00;100.00
59274;BME280;45044;41.572;24.730;2023-01-28T08:58:30;90673.81;;;0.91;100.00
59274;BME280;45044;41.572;24.730;2023-01-28T09:00:57;90672.34;;;1.06;100.00
59274;BME280;45044;41.572;24.730;2023-01-28T09:03:29;90677.47;;;0.90;100.00
59274;BME280;45044;41.572;24.730;2023-01-28T09:06:00;90665.63;;;0.89;100.00
59274;BME280;45044;41.572;24.730;2023-01-28T09:08:27;90674.44;;;0.88;100.00
59274;BME280;45044;41.572;24.730;2023-01-28T09:10:57;90678.50;;;1.01;100.00
59274;BME280;45044;41.572;24.730;2023-01-28T09:13:25;90675.66;;;1.19;100.00
59274;BME280;45044;41.572;24.730;2023-01-28T09:15:52;90676.31;;;1.16;100.00
59274;BME280;45044;41.572;24.730;2023-01-28T09:18:19;90672.44;;;1.10;100.00
59274;BME280;45044;41.572;24.730;2023-01-28T09:20:46;90681.06;;;1.14;100.00
59274;BME280;45044;41.572;24.730;2023-01-28T09:23:13;90638.44;;;1.11;100.00
59274;BME280;45044;41.572;24.730;2023-01-28T09:25:40;90679.53;;;1.13;100.00
59274;BME280;45044;41.572;24.730;2023-01-28T09:28:07;90676.78;;;1.34;100.00
59274;BME280;45044;41.572;24.730;2023-01-28T09:30:34;90675.22;;;1.62;100.00
59274;BME280;45044;41.572;24.730;2023-01-28T09:33:03;90675.47;;;1.57;100.00
59274;BME280;45044;41.572;24.730;2023-01-28T09:35:30;90673.56;;;1.86;100.00
59274;BME280;45044;41.572;24.730;2023-01-28T09:37:57;90670.84;;;2.11;100.00
59274;BME280;45044;41.572;24.730;2023-01-28T09:40:35;90664.47;;;2.24;100.00
59274;BME280;45044;41.572;24.730;2023-01-28T09:46:11;90632.59;;;1.75;100.00
59274;BME280;45044;41.572;24.730;2023-01-28T09:48:43;90665.88;;;1.89;100.00
59274;BME280;45044;41.572;24.730;2023-01-28T09:51:22;90673.38;;;1.46;100.00
59274;BME280;45044;41.572;24.730;2023-01-28T09:53:54;90663.94;;;1.54;100.00
59274;BME280;45044;41.572;24.730;2023-01-28T09:56:29;90661.25;;;1.50;100.00
59274;BME280;45044;41.572;24.730;2023-01-28T09:59:01;90655.97;;;1.30;100.00
59274;BME280;45044;41.572;24.730;2023-01-28T10:01:52;90663.69;;;1.43;100.00
59274;BME280;45044;41.572;24.730;2023-01-28T10:07:09;90656.34;;;1.61;100.00
59274;BME280;45044;41.572;24.730;2023-01-28T10:09:49;90666.13;;;1.68;100.00
59274;BME280;45044;41.572;24.730;2023-01-28T10:12:37;90663.72;;;1.91;100.00
59274;BME280;45044;41.572;24.730;2023-01-28T10:18:00;90658.59;;;1.63;100.00
59274;BME280;45044;41.572;24.730;2023-01-28T10:20:51;90659.78;;;1.82;100.00
59274;BME280;45044;41.572;24.730;2023-01-28T10:23:27;90661.47;;;1.90;100.00
59274;BME280;45044;41.572;24.730;2023-01-28T10:25:58;90649.00;;;1.96;100.00
59274;BME280;45044;41.572;24.730;2023-01-28T10:28:27;90650.31;;;2.06;100.00
59274;BME280;45044;41.572;24.730;2023-01-28T10:30:55;90648.91;;;1.92;100.00
59274;BME280;45044;41.572;24.730;2023-01-28T10:33:32;90662.13;;;1.87;100.00
59274;BME280;45044;41.572;24.730;2023-01-28T10:36:02;90658.63;;;1.95;100.00
59274;BME280;45044;41.572;24.730;2023-01-28T10:38:29;90659.03;;;1.65;100.00
59274;BME280;45044;41.572;24.730;2023-01-28T10:41:00;90662.66;;;1.48;100.00
59274;BME280;45044;41.572;24.730;2023-01-28T10:43:33;90663.44;;;1.48;100.00
59274;BME280;45044;41.572;24.730;2023-01-28T10:46:06;90665.41;;;1.39;100.00
59274;BME280;45044;41.572;24.730;2023-01-28T10:48:37;90664.44;;;1.43;100.00
59274;BME280;45044;41.572;24.730;2023-01-28T10:51:05;90662.88;;;1.26;100.00
59274;BME280;45044;41.572;24.730;2023-01-28T10:56:02;90664.81;;;1.29;100.00
59274;BME280;45044;41.572;24.730;2023-01-28T10:58:33;90661.50;;;1.45;100.00
59274;BME280;45044;41.572;24.730;2023-01-28T11:01:06;90643.47;;;1.49;100.00
59274;BME280;45044;41.572;24.730;2023-01-28T11:03:33;90643.19;;;1.38;100.00
59274;BME280;45044;41.572;24.730;2023-01-28T11:06:02;90642.72;;;1.81;100.00
59274;BME280;45044;41.572;24.730;2023-01-28T11:08:30;90658.69;;;1.50;100.00
59274;BME280;45044;41.572;24.730;2023-01-28T11:10:57;90660.50;;;1.50;100.00
59274;BME280;45044;41.572;24.730;2023-01-28T11:13:26;90665.22;;;1.31;100.00
59274;BME280;45044;41.572;24.730;2023-01-28T11:18:29;90666.56;;;1.70;100.00
59274;BME280;45044;41.572;24.730;2023-01-28T11:21:14;90663.97;;;1.70;100.00
59274;BME280;45044;41.572;24.730;2023-01-28T11:24:13;90672.66;;;1.33;100.00
59274;BME280;45044;41.572;24.730;2023-01-28T11:26:47;90665.69;;;1.50;100.00
59274;BME280;45044;41.572;24.730;2023-01-28T11:29:38;90663.00;;;1.46;100.00
59274;BME280;45044;41.572;24.730;2023-01-28T11:32:16;90648.84;;;1.27;100.00
59274;BME280;45044;41.572;24.730;2023-01-28T11:34:52;90676.97;;;1.41;100.00
59274;BME280;45044;41.572;24.730;2023-01-28T11:37:20;90674.28;;;1.38;100.00
59274;BME280;45044;41.572;24.730;2023-01-28T11:39:59;90679.81;;;1.52;100.00
59274;BME280;45044;41.572;24.730;2023-01-28T11:42:26;90664.84;;;1.46;100.00
59274;BME280;45044;41.572;24.730;2023-01-28T11:44:54;90682.00;;;1.50;100.00
59274;BME280;45044;41.572;24.730;2023-01-28T11:47:45;90676.94;;;1.25;100.00
59274;BME280;45044;41.572;24.730;2023-01-28T11:50:28;90680.69;;;1.28;100.00
59274;BME280;45044;41.572;24.730;2023-01-28T11:53:13;90681.22;;;1.50;100.00
59274;BME280;45044;41.572;24.730;2023-01-28T12:05:52;90683.34;;;1.03;100.00
59274;BME280;45044;41.572;24.730;2023-01-28T12:20:45;90699.69;;;0.91;100.00
59274;BME280;45044;41.572;24.730;2023-01-28T12:26:16;90700.91;;;0.68;100.00
59274;BME280;45044;41.572;24.730;2023-01-28T12:28:56;90699.81;;;0.69;100.00
59274;BME280;45044;41.572;24.730;2023-01-28T12:31:51;90704.75;;;0.75;100.00
59274;BME280;45044;41.572;24.730;2023-01-28T12:43:04;90707.72;;;0.61;100.00
59274;BME280;45044;41.572;24.730;2023-01-28T12:45:38;90711.38;;;0.59;100.00
59274;BME280;45044;41.572;24.730;2023-01-28T12:48:35;90714.41;;;0.62;100.00
59274;BME280;45044;41.572;24.730;2023-01-28T12:51:45;90721.84;;;0.51;100.00
59274;BME280;45044;41.572;24.730;2023-01-28T12:54:19;90728.53;;;0.39;100.00
59274;BME280;45044;41.572;24.730;2023-01-28T12:56:53;90711.63;;;0.42;100.00
59274;BME280;45044;41.572;24.730;2023-01-28T13:00:36;90725.84;;;0.23;100.00
59274;BME280;45044;41.572;24.730;2023-01-28T13:02:41;90702.00;;;0.17;100.00
59274;BME280;45044;41.572;24.730;2023-01-28T13:05:16;90740.69;;;0.26;100.00
59274;BME280;45044;41.572;24.730;2023-01-28T13:08:14;90741.13;;;0.28;100.00
59274;BME280;45044;41.572;24.730;2023-01-28T13:10:44;90740.91;;;0.33;100.00
59274;BME280;45044;41.572;24.730;2023-01-28T13:13:24;90745.63;;;0.06;100.00
59274;BME280;45044;41.572;24.730;2023-01-28T13:15:54;90748.22;;;0.06;100.00
59274;BME280;45044;41.572;24.730;2023-01-28T13:18:31;90757.88;;;-0.03;100.00
59274;BME280;45044;41.572;24.730;2023-01-28T13:21:00;90746.28;;;0.03;100.00
59274;BME280;45044;41.572;24.730;2023-01-28T13:26:09;90762.16;;;0.39;100.00
59274;BME280;45044;41.572;24.730;2023-01-28T13:28:37;90757.91;;;0.22;100.00
59274;BME280;45044;41.572;24.730;2023-01-28T13:31:09;90761.16;;;0.19;100.00
59274;BME280;45044;41.572;24.730;2023-01-28T13:33:46;90748.22;;;0.31;100.00
59274;BME280;45044;41.572;24.730;2023-01-28T13:38:47;90756.22;;;0.39;100.00
59274;BME280;45044;41.572;24.730;2023-01-28T13:41:14;90767.63;;;0.13;100.00
59274;BME280;45044;41.572;24.730;2023-01-28T13:43:41;90763.41;;;0.20;100.00
59274;BME280;45044;41.572;24.730;2023-01-28T13:46:11;90774.41;;;0.17;100.00
59274;BME280;45044;41.572;24.730;2023-01-28T13:48:47;90763.94;;;0.01;100.00
59274;BME280;45044;41.572;24.730;2023-01-28T13:51:31;90777.09;;;0.08;100.00
59274;BME280;45044;41.572;24.730;2023-01-28T13:54:02;90776.22;;;0.17;100.00
59274;BME280;45044;41.572;24.730;2023-01-28T13:59:47;90781.16;;;0.09;100.00
59274;BME280;45044;41.572;24.730;2023-01-28T14:02:35;90786.66;;;0.08;100.00
59274;BME280;45044;41.572;24.730;2023-01-28T14:14:40;90793.84;;;-0.10;100.00
59274;BME280;45044;41.572;24.730;2023-01-28T14:19:47;90795.81;;;-0.07;100.00
59274;BME280;45044;41.572;24.730;2023-01-28T14:22:18;90809.91;;;-0.05;100.00
59274;BME280;45044;41.572;24.730;2023-01-28T14:24:47;90804.38;;;-0.16;100.00
59274;BME280;45044;41.572;24.730;2023-01-28T14:27:20;90807.28;;;-0.17;100.00
59274;BME280;45044;41.572;24.730;2023-01-28T14:32:18;90813.28;;;-0.47;100.00
59274;BME280;45044;41.572;24.730;2023-01-28T14:34:45;90818.47;;;-0.47;100.00
59274;BME280;45044;41.572;24.730;2023-01-28T14:37:15;90818.50;;;-0.34;100.00
59274;BME280;45044;41.572;24.730;2023-01-28T14:39:47;90823.06;;;-0.31;100.00
59274;BME280;45044;41.572;24.730;2023-01-28T14:42:22;90826.22;;;-0.47;100.00